Pagrindinis puslapis
METAR-TAF:

METAR-TAF

Oro uostai :

Kauno oro uostas

Kaunas, Lietuva

platuma: 54-54N, ilguma: 023-55-12E, Aukštis: 77 m

Dabartinis oras

Ataskaita buvo paskelbta 22 minutes, ne 07:50 UTC
Ramus vėjas
Temperatūra -7°C
Drėgmė 93%
Slėgis 1014 hPa
Matomumas: 5000 m
Apsiniaukę ne aukštis 1500 ft
rūkana

METAR: EYKA 230750Z 00000KT 5000 BR OVC015 M07/M08 Q1014 R08/29//95

Laikas: 10:12 (08:12 UTC)

Prognozė

Ataskaita buvo paskelbta 3 valandos ir 11 minutes, ne 05:01 UTC
Prognozė galioja nuo 23 metu 06 UTC su 24 metu 06 UTC
Vėjas 6 kt iš Pietų
Matomumas: 5000 m
Su prošvaistėmis ne aukštis 800 ft
Apsiniaukę ne aukštis 1500 ft
rūkana
Laikinai
nuo 23 metu 06 UTC su 23 metu 09 UTC
Matomumas: 1500 m
Apsiniaukę ne aukštis 500 ft
Tapsmas
nuo 23 metu 09 UTC su 23 metu 10 UTC
Matomumas: 7000 m
Išsisklaidę debesys ne aukštis 1000 ft
Apsiniaukę ne aukštis 2000 ft

TAF: EYKA 230501Z 2306/2406 17006KT 5000 BR BKN008 OVC015 TEMPO 2306/2309 1500 OVC005 BECMG 2309/2310 7000 SCT010 OVC020

Orai ataskaitas ir orų prognozės (METAR, TAF).

turimą stotys yra geltonos ir raudonos taškus žemėlapyje.

Perkelti pele per norėdami pamatyti stoties vardą.

Tada spustelėkite, norėdami matyti oro stebėjimo ir prognozės.

Norėdami pakeisti žemėlapį: spustelėkite ant žalios mygtukų su juodo kryžiaus žemyn,; žalią mygtuką su brūkšneliu, jei norite nutolinti; arba žalių rodyklių gretimoms žemėlapius.


METAR-TAF: